createdAt,value
2023-04-15T00:00:01.639Z,0.00
2023-04-15T00:10:02.318Z,0.00
2023-04-15T00:20:01.339Z,0.00
2023-04-15T00:30:00.879Z,0.00
2023-04-15T00:40:01.068Z,0.00
2023-04-15T00:50:01.474Z,0.00
2023-04-15T01:00:01.091Z,0.00
2023-04-15T01:10:00.866Z,0.00
2023-04-15T01:20:01.865Z,0.00
2023-04-15T01:30:02.259Z,0.00
2023-04-15T01:40:00.791Z,0.00
2023-04-15T01:50:01.080Z,0.00
2023-04-15T02:00:01.292Z,0.00
2023-04-15T02:10:01.368Z,0.00
2023-04-15T02:20:02.032Z,0.00
2023-04-15T02:30:01.527Z,0.00
2023-04-15T02:40:01.538Z,0.00
2023-04-15T02:50:01.334Z,0.00
2023-04-15T03:00:01.295Z,0.00
2023-04-15T03:10:01.077Z,0.00
2023-04-15T03:20:00.910Z,0.00
2023-04-15T03:30:03.696Z,0.00
2023-04-15T03:40:01.799Z,0.11
2023-04-15T03:50:01.015Z,0.68
2023-04-15T04:00:00.831Z,4.53
2023-04-15T04:10:01.111Z,12.11
2023-04-15T04:20:01.261Z,15.00
2023-04-15T04:30:00.818Z,48.33
2023-04-15T04:40:01.276Z,274.58
2023-04-15T04:50:01.030Z,200.00
2023-04-15T05:00:00.881Z,536.25
2023-04-15T05:10:00.902Z,658.33
2023-04-15T05:20:00.875Z,363.33
2023-04-15T05:30:01.125Z,714.17
2023-04-15T05:40:02.809Z,973.33
2023-04-15T05:50:00.804Z,1390.83
2023-04-15T06:00:01.245Z,1033.33
2023-04-15T06:10:00.829Z,2165.00
2023-04-15T06:20:01.635Z,1061.67
2023-04-15T06:30:02.430Z,2462.08
2023-04-15T06:40:03.764Z,3205.83
2023-04-15T06:50:00.869Z,3905.42
2023-04-15T07:00:01.242Z,2231.67
2023-04-15T07:10:00.835Z,2178.33
2023-04-15T07:20:00.833Z,2183.33
2023-04-15T07:30:01.275Z,1670.00
2023-04-15T07:40:01.058Z,2987.92
2023-04-15T07:50:00.941Z,1055.00
2023-04-15T08:00:00.883Z,2424.58
2023-04-15T08:10:00.898Z,2778.33
2023-04-15T08:20:00.819Z,2672.50
2023-04-15T08:30:04.940Z,2991.25
2023-04-15T08:40:01.057Z,2892.92
2023-04-15T08:50:01.090Z,1376.67
2023-04-15T09:00:00.980Z,3060.00
2023-04-15T09:10:00.834Z,3694.58
2023-04-15T09:20:00.887Z,2954.58
2023-04-15T09:30:02.181Z,1721.67
2023-04-15T09:40:02.012Z,1433.33
2023-04-15T09:50:01.459Z,2855.00
2023-04-15T10:00:01.882Z,1078.33
2023-04-15T10:10:01.531Z,1081.67
2023-04-15T10:20:01.103Z,1216.67
2023-04-15T10:30:01.099Z,3095.42
2023-04-15T10:40:01.245Z,4614.17
2023-04-15T10:50:01.575Z,3878.33
2023-04-15T11:00:01.474Z,3317.50
2023-04-15T11:10:01.272Z,1141.67
2023-04-15T11:20:01.937Z,2352.92
2023-04-15T11:30:01.036Z,1992.08
2023-04-15T11:40:01.066Z,2084.58
2023-04-15T11:50:02.352Z,2561.25
2023-04-15T12:00:01.275Z,2310.42
2023-04-15T12:10:01.056Z,3107.08
2023-04-15T12:20:01.242Z,4440.83
2023-04-15T12:30:01.089Z,2146.67
2023-04-15T12:40:01.015Z,4503.75
2023-04-15T12:50:00.923Z,4056.67
2023-04-15T13:00:01.086Z,3821.25
2023-04-15T13:10:01.046Z,1646.67
2023-04-15T13:20:01.394Z,1136.67
2023-04-15T13:30:02.970Z,2476.25
2023-04-15T13:40:03.291Z,1750.00
2023-04-15T13:50:01.405Z,2890.00
2023-04-15T14:00:00.872Z,791.67
2023-04-15T14:10:01.288Z,1127.50
2023-04-15T14:20:01.550Z,1073.75
2023-04-15T14:30:00.829Z,1575.00
2023-04-15T14:40:00.820Z,875.00
2023-04-15T14:50:00.857Z,1986.67
2023-04-15T15:00:00.992Z,1050.83
2023-04-15T15:10:01.349Z,365.00
2023-04-15T15:20:01.330Z,964.58
2023-04-15T15:30:02.917Z,659.17
2023-04-15T15:40:01.680Z,858.33
2023-04-15T15:50:00.849Z,716.67
2023-04-15T16:00:10.937Z,711.67
2023-04-15T16:10:01.490Z,542.92
2023-04-15T16:20:01.608Z,151.67
2023-04-15T16:30:01.324Z,600.83
2023-04-15T16:40:01.032Z,785.42
2023-04-15T16:50:00.904Z,281.67
2023-04-15T17:00:00.920Z,537.92
2023-04-15T17:10:01.047Z,547.92
2023-04-15T17:20:02.362Z,171.67
2023-04-15T17:30:01.029Z,224.58
2023-04-15T17:40:05.991Z,75.00
2023-04-15T17:50:00.863Z,73.75
2023-04-15T18:00:00.936Z,13.33
2023-04-15T18:10:01.182Z,12.11
2023-04-15T18:20:02.172Z,3.62
2023-04-15T18:30:01.543Z,0.91
2023-04-15T18:40:00.794Z,0.34
2023-04-15T18:50:02.990Z,0.23
2023-04-15T19:00:01.998Z,0.11
2023-04-15T19:10:01.097Z,0.00
2023-04-15T19:20:01.522Z,0.00
2023-04-15T19:30:01.372Z,0.00
2023-04-15T19:40:00.862Z,0.00
2023-04-15T19:50:02.334Z,0.00
2023-04-15T20:00:01.980Z,0.00
2023-04-15T20:10:01.085Z,0.00
2023-04-15T20:20:01.593Z,0.00
2023-04-15T20:30:01.128Z,0.00
2023-04-15T20:40:01.044Z,0.00
2023-04-15T20:50:01.294Z,0.00
2023-04-15T21:00:02.248Z,0.00
2023-04-15T21:10:01.257Z,0.00
2023-04-15T21:20:00.869Z,0.00
2023-04-15T21:30:01.380Z,0.00
2023-04-15T21:40:01.971Z,0.00
2023-04-15T21:50:00.857Z,0.00
2023-04-15T22:00:01.408Z,0.00
2023-04-15T22:10:02.590Z,0.00
2023-04-15T22:20:01.002Z,0.00
2023-04-15T22:30:00.995Z,0.00
2023-04-15T22:40:01.085Z,0.00
2023-04-15T22:50:01.092Z,0.00
2023-04-15T23:00:03.254Z,0.00
2023-04-15T23:10:01.252Z,0.00
2023-04-15T23:20:01.578Z,0.00
2023-04-15T23:30:00.803Z,0.00
2023-04-15T23:40:01.952Z,0.00
2023-04-15T23:50:01.933Z,0.00
